sensor_id;sensor_type;location;lat;lon;timestamp;P1;durP1;ratioP1;P2;durP2;ratioP2
70049;SDS011;57391;51.306;22.680;2023-08-06T00:01:30;11.10;;;5.80;;
70049;SDS011;57391;51.306;22.680;2023-08-06T00:03:57;9.60;;;5.30;;
70049;SDS011;57391;51.306;22.680;2023-08-06T00:06:25;11.90;;;5.50;;
70049;SDS011;57391;51.306;22.680;2023-08-06T00:08:52;11.90;;;6.00;;
70049;SDS011;57391;51.306;22.680;2023-08-06T00:11:19;10.90;;;5.60;;
70049;SDS011;57391;51.306;22.680;2023-08-06T00:13:46;14.10;;;6.00;;
70049;SDS011;57391;51.306;22.680;2023-08-06T00:16:13;11.20;;;5.90;;
70049;SDS011;57391;51.306;22.680;2023-08-06T00:18:40;9.50;;;6.00;;
70049;SDS011;57391;51.306;22.680;2023-08-06T00:21:07;11.80;;;6.70;;
70049;SDS011;57391;51.306;22.680;2023-08-06T00:23:34;10.80;;;5.90;;
70049;SDS011;57391;51.306;22.680;2023-08-06T00:26:01;12.80;;;6.20;;
70049;SDS011;57391;51.306;22.680;2023-08-06T00:28:29;11.70;;;5.70;;
70049;SDS011;57391;51.306;22.680;2023-08-06T00:30:56;14.60;;;6.00;;
70049;SDS011;57391;51.306;22.680;2023-08-06T00:33:24;14.00;;;6.10;;
70049;SDS011;57391;51.306;22.680;2023-08-06T00:35:52;9.70;;;6.00;;
70049;SDS011;57391;51.306;22.680;2023-08-06T00:38:19;11.80;;;6.40;;
70049;SDS011;57391;51.306;22.680;2023-08-06T00:40:46;12.40;;;6.30;;
70049;SDS011;57391;51.306;22.680;2023-08-06T00:43:14;8.80;;;6.30;;
70049;SDS011;57391;51.306;22.680;2023-08-06T00:45:43;10.60;;;6.10;;
70049;SDS011;57391;51.306;22.680;2023-08-06T00:48:11;10.00;;;5.70;;
70049;SDS011;57391;51.306;22.680;2023-08-06T00:50:39;12.90;;;6.10;;
70049;SDS011;57391;51.306;22.680;2023-08-06T00:53:06;9.90;;;6.10;;
70049;SDS011;57391;51.306;22.680;2023-08-06T00:55:33;12.20;;;6.20;;
70049;SDS011;57391;51.306;22.680;2023-08-06T00:58:04;12.60;;;6.00;;
70049;SDS011;57391;51.306;22.680;2023-08-06T01:00:32;9.80;;;6.20;;
70049;SDS011;57391;51.306;22.680;2023-08-06T01:02:59;16.00;;;6.40;;
70049;SDS011;57391;51.306;22.680;2023-08-06T01:05:27;9.30;;;6.20;;
70049;SDS011;57391;51.306;22.680;2023-08-06T01:13:45;11.10;;;6.70;;
70049;SDS011;57391;51.306;22.680;2023-08-06T01:16:17;12.80;;;6.50;;
70049;SDS011;57391;51.306;22.680;2023-08-06T01:18:47;12.70;;;6.70;;
70049;SDS011;57391;51.306;22.680;2023-08-06T01:21:16;13.30;;;6.70;;
70049;SDS011;57391;51.306;22.680;2023-08-06T01:23:44;13.20;;;6.60;;
70049;SDS011;57391;51.306;22.680;2023-08-06T01:29:08;13.20;;;6.60;;
70049;SDS011;57391;51.306;22.680;2023-08-06T01:31:56;14.30;;;6.60;;
70049;SDS011;57391;51.306;22.680;2023-08-06T01:34:25;10.30;;;6.70;;
70049;SDS011;57391;51.306;22.680;2023-08-06T01:36:56;11.40;;;7.50;;
70049;SDS011;57391;51.306;22.680;2023-08-06T01:39:24;10.40;;;6.50;;
70049;SDS011;57391;51.306;22.680;2023-08-06T01:41:51;10.00;;;6.50;;
70049;SDS011;57391;51.306;22.680;2023-08-06T01:44:18;10.60;;;6.90;;
70049;SDS011;57391;51.306;22.680;2023-08-06T01:46:45;12.70;;;7.00;;
70049;SDS011;57391;51.306;22.680;2023-08-06T01:49:12;11.50;;;6.80;;
70049;SDS011;57391;51.306;22.680;2023-08-06T01:51:38;11.10;;;6.50;;
70049;SDS011;57391;51.306;22.680;2023-08-06T01:54:05;11.40;;;7.10;;
70049;SDS011;57391;51.306;22.680;2023-08-06T01:56:32;11.80;;;7.00;;
70049;SDS011;57391;51.306;22.680;2023-08-06T01:58:59;11.80;;;7.10;;
70049;SDS011;57391;51.306;22.680;2023-08-06T02:01:26;12.30;;;7.10;;
70049;SDS011;57391;51.306;22.680;2023-08-06T02:03:53;11.00;;;6.80;;
70049;SDS011;57391;51.306;22.680;2023-08-06T02:06:20;10.00;;;6.70;;
70049;SDS011;57391;51.306;22.680;2023-08-06T02:08:46;14.90;;;7.40;;
70049;SDS011;57391;51.306;22.680;2023-08-06T02:11:15;9.60;;;6.80;;
70049;SDS011;57391;51.306;22.680;2023-08-06T02:13:42;9.70;;;7.20;;
70049;SDS011;57391;51.306;22.680;2023-08-06T02:16:09;13.30;;;7.70;;
70049;SDS011;57391;51.306;22.680;2023-08-06T02:18:36;10.40;;;6.80;;
70049;SDS011;57391;51.306;22.680;2023-08-06T02:21:03;10.60;;;7.60;;
70049;SDS011;57391;51.306;22.680;2023-08-06T02:23:29;12.50;;;7.40;;
70049;SDS011;57391;51.306;22.680;2023-08-06T02:26:00;13.40;;;7.70;;
70049;SDS011;57391;51.306;22.680;2023-08-06T02:28:29;9.80;;;6.90;;
70049;SDS011;57391;51.306;22.680;2023-08-06T02:30:57;10.80;;;7.30;;
70049;SDS011;57391;51.306;22.680;2023-08-06T02:33:24;12.80;;;7.40;;
70049;SDS011;57391;51.306;22.680;2023-08-06T02:35:51;14.80;;;7.70;;
70049;SDS011;57391;51.306;22.680;2023-08-06T02:38:25;11.30;;;7.40;;
70049;SDS011;57391;51.306;22.680;2023-08-06T02:40:52;11.00;;;7.50;;
70049;SDS011;57391;51.306;22.680;2023-08-06T02:43:19;13.10;;;7.40;;
70049;SDS011;57391;51.306;22.680;2023-08-06T02:45:46;9.50;;;6.80;;
70049;SDS011;57391;51.306;22.680;2023-08-06T02:48:13;10.50;;;7.40;;
70049;SDS011;57391;51.306;22.680;2023-08-06T02:50:41;12.60;;;7.00;;
70049;SDS011;57391;51.306;22.680;2023-08-06T02:53:08;11.50;;;7.80;;
70049;SDS011;57391;51.306;22.680;2023-08-06T02:55:35;12.40;;;7.30;;
70049;SDS011;57391;51.306;22.680;2023-08-06T02:58:05;11.00;;;7.20;;
70049;SDS011;57391;51.306;22.680;2023-08-06T03:00:33;11.30;;;6.70;;
70049;SDS011;57391;51.306;22.680;2023-08-06T03:03:01;11.30;;;7.40;;
70049;SDS011;57391;51.306;22.680;2023-08-06T03:05:38;10.90;;;6.90;;
70049;SDS011;57391;51.306;22.680;2023-08-06T03:08:05;11.20;;;7.50;;
70049;SDS011;57391;51.306;22.680;2023-08-06T03:10:33;10.70;;;7.30;;
70049;SDS011;57391;51.306;22.680;2023-08-06T03:13:01;12.30;;;7.30;;
70049;SDS011;57391;51.306;22.680;2023-08-06T03:15:28;13.10;;;7.60;;
70049;SDS011;57391;51.306;22.680;2023-08-06T03:17:56;12.00;;;6.50;;
70049;SDS011;57391;51.306;22.680;2023-08-06T03:20:23;11.60;;;7.20;;
70049;SDS011;57391;51.306;22.680;2023-08-06T03:22:51;11.00;;;7.00;;
70049;SDS011;57391;51.306;22.680;2023-08-06T03:25:18;10.90;;;7.00;;
70049;SDS011;57391;51.306;22.680;2023-08-06T03:27:47;10.10;;;7.30;;
70049;SDS011;57391;51.306;22.680;2023-08-06T03:30:14;8.90;;;7.00;;
70049;SDS011;57391;51.306;22.680;2023-08-06T03:32:41;11.80;;;7.40;;
70049;SDS011;57391;51.306;22.680;2023-08-06T03:35:08;10.20;;;7.00;;
70049;SDS011;57391;51.306;22.680;2023-08-06T03:37:35;10.00;;;6.90;;
70049;SDS011;57391;51.306;22.680;2023-08-06T03:40:02;10.30;;;6.70;;
70049;SDS011;57391;51.306;22.680;2023-08-06T03:42:29;8.90;;;7.00;;
70049;SDS011;57391;51.306;22.680;2023-08-06T03:44:56;10.80;;;7.30;;
70049;SDS011;57391;51.306;22.680;2023-08-06T03:47:23;15.40;;;6.70;;
70049;SDS011;57391;51.306;22.680;2023-08-06T03:49:50;11.40;;;6.40;;
70049;SDS011;57391;51.306;22.680;2023-08-06T03:52:17;10.40;;;6.60;;
70049;SDS011;57391;51.306;22.680;2023-08-06T03:54:44;11.70;;;6.70;;
70049;SDS011;57391;51.306;22.680;2023-08-06T03:57:11;10.20;;;6.80;;
70049;SDS011;57391;51.306;22.680;2023-08-06T03:59:38;9.40;;;6.30;;
70049;SDS011;57391;51.306;22.680;2023-08-06T04:02:06;11.40;;;6.50;;
70049;SDS011;57391;51.306;22.680;2023-08-06T04:04:33;11.60;;;6.20;;
70049;SDS011;57391;51.306;22.680;2023-08-06T04:07:00;10.80;;;6.50;;
70049;SDS011;57391;51.306;22.680;2023-08-06T04:09:28;11.20;;;6.40;;
70049;SDS011;57391;51.306;22.680;2023-08-06T04:11:56;12.80;;;6.30;;
70049;SDS011;57391;51.306;22.680;2023-08-06T04:14:26;12.00;;;5.50;;
70049;SDS011;57391;51.306;22.680;2023-08-06T04:16:53;10.60;;;5.70;;
70049;SDS011;57391;51.306;22.680;2023-08-06T04:19:20;8.90;;;4.80;;
70049;SDS011;57391;51.306;22.680;2023-08-06T04:21:47;11.30;;;5.20;;
70049;SDS011;57391;51.306;22.680;2023-08-06T04:24:14;9.10;;;5.10;;
70049;SDS011;57391;51.306;22.680;2023-08-06T04:26:40;8.30;;;5.40;;
70049;SDS011;57391;51.306;22.680;2023-08-06T04:29:07;8.80;;;5.20;;
70049;SDS011;57391;51.306;22.680;2023-08-06T04:31:34;12.30;;;4.80;;
70049;SDS011;57391;51.306;22.680;2023-08-06T04:34:01;8.80;;;4.60;;
70049;SDS011;57391;51.306;22.680;2023-08-06T04:36:29;9.70;;;4.80;;
70049;SDS011;57391;51.306;22.680;2023-08-06T04:38:56;10.30;;;4.80;;
70049;SDS011;57391;51.306;22.680;2023-08-06T04:41:23;9.10;;;4.80;;
70049;SDS011;57391;51.306;22.680;2023-08-06T04:43:49;7.30;;;4.20;;
70049;SDS011;57391;51.306;22.680;2023-08-06T04:46:17;9.80;;;4.10;;
70049;SDS011;57391;51.306;22.680;2023-08-06T04:48:43;10.40;;;4.40;;
70049;SDS011;57391;51.306;22.680;2023-08-06T04:51:10;8.50;;;4.70;;
70049;SDS011;57391;51.306;22.680;2023-08-06T04:53:37;7.20;;;4.70;;
70049;SDS011;57391;51.306;22.680;2023-08-06T04:56:04;8.50;;;4.20;;
70049;SDS011;57391;51.306;22.680;2023-08-06T04:58:31;7.10;;;4.30;;
70049;SDS011;57391;51.306;22.680;2023-08-06T05:00:57;8.30;;;4.60;;
70049;SDS011;57391;51.306;22.680;2023-08-06T05:03:24;8.40;;;4.60;;
70049;SDS011;57391;51.306;22.680;2023-08-06T05:05:51;9.40;;;4.80;;
70049;SDS011;57391;51.306;22.680;2023-08-06T05:08:18;6.90;;;4.10;;
70049;SDS011;57391;51.306;22.680;2023-08-06T05:10:45;6.70;;;4.30;;
70049;SDS011;57391;51.306;22.680;2023-08-06T05:13:12;6.00;;;4.30;;
70049;SDS011;57391;51.306;22.680;2023-08-06T05:15:41;7.30;;;4.50;;
70049;SDS011;57391;51.306;22.680;2023-08-06T05:18:09;8.80;;;4.50;;
70049;SDS011;57391;51.306;22.680;2023-08-06T05:20:36;7.80;;;4.30;;
70049;SDS011;57391;51.306;22.680;2023-08-06T05:23:04;7.70;;;4.70;;
70049;SDS011;57391;51.306;22.680;2023-08-06T05:25:30;7.50;;;5.20;;
70049;SDS011;57391;51.306;22.680;2023-08-06T05:27:58;9.80;;;5.00;;
70049;SDS011;57391;51.306;22.680;2023-08-06T05:30:24;6.60;;;5.10;;
70049;SDS011;57391;51.306;22.680;2023-08-06T05:32:51;8.10;;;5.10;;
70049;SDS011;57391;51.306;22.680;2023-08-06T05:35:18;7.50;;;5.00;;
70049;SDS011;57391;51.306;22.680;2023-08-06T05:37:45;9.00;;;5.00;;
70049;SDS011;57391;51.306;22.680;2023-08-06T05:40:12;7.00;;;5.00;;
70049;SDS011;57391;51.306;22.680;2023-08-06T05:42:40;11.10;;;5.00;;
70049;SDS011;57391;51.306;22.680;2023-08-06T05:45:08;8.50;;;5.10;;
70049;SDS011;57391;51.306;22.680;2023-08-06T05:47:36;7.20;;;4.70;;
70049;SDS011;57391;51.306;22.680;2023-08-06T05:50:03;10.30;;;5.00;;
70049;SDS011;57391;51.306;22.680;2023-08-06T05:52:30;7.70;;;4.70;;
70049;SDS011;57391;51.306;22.680;2023-08-06T05:54:57;8.10;;;5.00;;
70049;SDS011;57391;51.306;22.680;2023-08-06T05:57:24;9.00;;;5.10;;
70049;SDS011;57391;51.306;22.680;2023-08-06T05:59:51;6.80;;;4.60;;
70049;SDS011;57391;51.306;22.680;2023-08-06T06:02:17;8.60;;;5.70;;
70049;SDS011;57391;51.306;22.680;2023-08-06T06:04:45;7.90;;;5.20;;
70049;SDS011;57391;51.306;22.680;2023-08-06T06:07:12;9.70;;;5.30;;
70049;SDS011;57391;51.306;22.680;2023-08-06T06:09:39;11.50;;;5.80;;
70049;SDS011;57391;51.306;22.680;2023-08-06T06:12:06;8.40;;;5.40;;
70049;SDS011;57391;51.306;22.680;2023-08-06T06:14:33;10.70;;;5.90;;
70049;SDS011;57391;51.306;22.680;2023-08-06T06:17:00;8.40;;;5.10;;
70049;SDS011;57391;51.306;22.680;2023-08-06T06:19:27;8.70;;;6.10;;
70049;SDS011;57391;51.306;22.680;2023-08-06T06:21:54;10.00;;;4.90;;
70049;SDS011;57391;51.306;22.680;2023-08-06T06:24:24;7.60;;;5.20;;
70049;SDS011;57391;51.306;22.680;2023-08-06T06:26:51;7.90;;;5.40;;
70049;SDS011;57391;51.306;22.680;2023-08-06T06:29:18;9.00;;;4.90;;
70049;SDS011;57391;51.306;22.680;2023-08-06T06:31:45;9.10;;;5.90;;
70049;SDS011;57391;51.306;22.680;2023-08-06T06:34:12;8.80;;;5.30;;
70049;SDS011;57391;51.306;22.680;2023-08-06T06:36:39;9.40;;;5.10;;
70049;SDS011;57391;51.306;22.680;2023-08-06T06:39:06;7.80;;;5.20;;
70049;SDS011;57391;51.306;22.680;2023-08-06T06:41:33;8.00;;;5.30;;
70049;SDS011;57391;51.306;22.680;2023-08-06T06:44:05;7.60;;;5.30;;
70049;SDS011;57391;51.306;22.680;2023-08-06T06:46:32;9.50;;;5.20;;
70049;SDS011;57391;51.306;22.680;2023-08-06T06:48:59;9.50;;;5.80;;
70049;SDS011;57391;51.306;22.680;2023-08-06T06:51:26;9.30;;;5.40;;
70049;SDS011;57391;51.306;22.680;2023-08-06T06:53:55;8.70;;;5.50;;
70049;SDS011;57391;51.306;22.680;2023-08-06T06:56:22;9.70;;;5.50;;
70049;SDS011;57391;51.306;22.680;2023-08-06T06:58:49;6.70;;;5.30;;
70049;SDS011;57391;51.306;22.680;2023-08-06T07:01:16;9.80;;;5.30;;
70049;SDS011;57391;51.306;22.680;2023-08-06T07:03:43;9.10;;;5.40;;
70049;SDS011;57391;51.306;22.680;2023-08-06T07:06:10;10.40;;;5.40;;
70049;SDS011;57391;51.306;22.680;2023-08-06T07:08:38;8.40;;;4.90;;
70049;SDS011;57391;51.306;22.680;2023-08-06T07:11:06;6.50;;;4.50;;
70049;SDS011;57391;51.306;22.680;2023-08-06T07:13:34;9.70;;;5.70;;
70049;SDS011;57391;51.306;22.680;2023-08-06T07:16:01;8.90;;;5.20;;
70049;SDS011;57391;51.306;22.680;2023-08-06T07:18:28;12.90;;;4.70;;
70049;SDS011;57391;51.306;22.680;2023-08-06T07:20:56;7.10;;;4.50;;
70049;SDS011;57391;51.306;22.680;2023-08-06T07:23:24;8.70;;;5.30;;
70049;SDS011;57391;51.306;22.680;2023-08-06T07:25:52;9.40;;;5.40;;
70049;SDS011;57391;51.306;22.680;2023-08-06T07:28:19;9.10;;;5.90;;
70049;SDS011;57391;51.306;22.680;2023-08-06T07:30:46;9.30;;;5.60;;
70049;SDS011;57391;51.306;22.680;2023-08-06T07:33:13;7.80;;;4.90;;
70049;SDS011;57391;51.306;22.680;2023-08-06T07:35:41;7.80;;;5.10;;
70049;SDS011;57391;51.306;22.680;2023-08-06T07:38:07;7.50;;;5.20;;
70049;SDS011;57391;51.306;22.680;2023-08-06T07:40:38;7.40;;;5.00;;
70049;SDS011;57391;51.306;22.680;2023-08-06T07:43:05;8.60;;;5.20;;
70049;SDS011;57391;51.306;22.680;2023-08-06T07:45:33;10.00;;;5.10;;
70049;SDS011;57391;51.306;22.680;2023-08-06T07:48:04;9.00;;;5.70;;
70049;SDS011;57391;51.306;22.680;2023-08-06T07:50:31;9.70;;;5.60;;
70049;SDS011;57391;51.306;22.680;2023-08-06T07:52:59;7.10;;;5.40;;
70049;SDS011;57391;51.306;22.680;2023-08-06T07:55:25;8.50;;;5.10;;
70049;SDS011;57391;51.306;22.680;2023-08-06T07:57:53;8.20;;;5.30;;
70049;SDS011;57391;51.306;22.680;2023-08-06T08:00:21;11.90;;;5.80;;
70049;SDS011;57391;51.306;22.680;2023-08-06T08:02:48;12.50;;;5.50;;
70049;SDS011;57391;51.306;22.680;2023-08-06T08:05:15;9.90;;;5.60;;
70049;SDS011;57391;51.306;22.680;2023-08-06T08:07:42;8.80;;;5.80;;
70049;SDS011;57391;51.306;22.680;2023-08-06T08:10:09;10.40;;;5.70;;
70049;SDS011;57391;51.306;22.680;2023-08-06T08:12:36;8.90;;;4.90;;
70049;SDS011;57391;51.306;22.680;2023-08-06T08:15:04;10.70;;;5.20;;
70049;SDS011;57391;51.306;22.680;2023-08-06T08:17:31;7.60;;;4.90;;
70049;SDS011;57391;51.306;22.680;2023-08-06T08:19:58;9.20;;;5.50;;
70049;SDS011;57391;51.306;22.680;2023-08-06T08:22:25;8.30;;;5.50;;
70049;SDS011;57391;51.306;22.680;2023-08-06T08:24:52;8.40;;;5.60;;
70049;SDS011;57391;51.306;22.680;2023-08-06T08:27:19;13.30;;;5.70;;
70049;SDS011;57391;51.306;22.680;2023-08-06T08:29:46;7.60;;;5.40;;
70049;SDS011;57391;51.306;22.680;2023-08-06T08:32:12;9.80;;;5.60;;
70049;SDS011;57391;51.306;22.680;2023-08-06T08:34:39;7.10;;;5.40;;
70049;SDS011;57391;51.306;22.680;2023-08-06T08:37:06;11.70;;;5.70;;
70049;SDS011;57391;51.306;22.680;2023-08-06T08:39:33;10.30;;;5.90;;
70049;SDS011;57391;51.306;22.680;2023-08-06T08:42:01;8.30;;;5.00;;
70049;SDS011;57391;51.306;22.680;2023-08-06T08:44:30;7.40;;;4.80;;
70049;SDS011;57391;51.306;22.680;2023-08-06T08:46:59;10.10;;;5.80;;
70049;SDS011;57391;51.306;22.680;2023-08-06T08:49:27;7.70;;;5.60;;
70049;SDS011;57391;51.306;22.680;2023-08-06T08:51:55;7.70;;;5.30;;
70049;SDS011;57391;51.306;22.680;2023-08-06T08:54:25;9.00;;;5.50;;
70049;SDS011;57391;51.306;22.680;2023-08-06T08:56:53;10.00;;;5.90;;
70049;SDS011;57391;51.306;22.680;2023-08-06T08:59:21;8.80;;;5.80;;
70049;SDS011;57391;51.306;22.680;2023-08-06T09:01:48;7.00;;;5.20;;
70049;SDS011;57391;51.306;22.680;2023-08-06T09:04:18;8.30;;;5.50;;
70049;SDS011;57391;51.306;22.680;2023-08-06T09:06:50;8.50;;;5.70;;
70049;SDS011;57391;51.306;22.680;2023-08-06T09:09:31;8.50;;;6.20;;
70049;SDS011;57391;51.306;22.680;2023-08-06T09:12:02;8.20;;;5.60;;
70049;SDS011;57391;51.306;22.680;2023-08-06T09:14:37;11.50;;;6.00;;
70049;SDS011;57391;51.306;22.680;2023-08-06T09:17:04;7.30;;;5.30;;
70049;SDS011;57391;51.306;22.680;2023-08-06T09:19:32;8.30;;;5.10;;
70049;SDS011;57391;51.306;22.680;2023-08-06T09:21:59;8.80;;;5.90;;
70049;SDS011;57391;51.306;22.680;2023-08-06T09:24:26;9.10;;;5.70;;
70049;SDS011;57391;51.306;22.680;2023-08-06T09:26:54;10.40;;;6.40;;
70049;SDS011;57391;51.306;22.680;2023-08-06T09:29:21;8.10;;;5.10;;
70049;SDS011;57391;51.306;22.680;2023-08-06T09:31:50;7.80;;;5.60;;
70049;SDS011;57391;51.306;22.680;2023-08-06T09:34:22;11.00;;;5.50;;
70049;SDS011;57391;51.306;22.680;2023-08-06T09:36:50;10.20;;;5.80;;
70049;SDS011;57391;51.306;22.680;2023-08-06T09:39:25;9.40;;;5.30;;
70049;SDS011;57391;51.306;22.680;2023-08-06T09:41:58;11.70;;;5.90;;
70049;SDS011;57391;51.306;22.680;2023-08-06T09:44:31;9.20;;;5.30;;
70049;SDS011;57391;51.306;22.680;2023-08-06T09:47:01;7.80;;;5.20;;
70049;SDS011;57391;51.306;22.680;2023-08-06T09:52:00;7.70;;;5.30;;
70049;SDS011;57391;51.306;22.680;2023-08-06T09:54:27;9.20;;;5.30;;
70049;SDS011;57391;51.306;22.680;2023-08-06T09:56:56;9.00;;;5.20;;
70049;SDS011;57391;51.306;22.680;2023-08-06T09:59:24;7.70;;;4.60;;
70049;SDS011;57391;51.306;22.680;2023-08-06T10:01:51;10.40;;;5.40;;
70049;SDS011;57391;51.306;22.680;2023-08-06T10:04:18;7.80;;;5.70;;
70049;SDS011;57391;51.306;22.680;2023-08-06T10:06:47;8.10;;;5.70;;
70049;SDS011;57391;51.306;22.680;2023-08-06T10:09:14;8.10;;;4.90;;
70049;SDS011;57391;51.306;22.680;2023-08-06T10:11:49;7.60;;;4.80;;
70049;SDS011;57391;51.306;22.680;2023-08-06T10:14:24;7.20;;;5.50;;
70049;SDS011;57391;51.306;22.680;2023-08-06T10:16:54;8.00;;;5.30;;
70049;SDS011;57391;51.306;22.680;2023-08-06T10:19:24;6.80;;;4.30;;
70049;SDS011;57391;51.306;22.680;2023-08-06T10:22:14;8.00;;;5.20;;
70049;SDS011;57391;51.306;22.680;2023-08-06T10:24:53;6.50;;;5.00;;
70049;SDS011;57391;51.306;22.680;2023-08-06T10:27:29;8.90;;;5.40;;
70049;SDS011;57391;51.306;22.680;2023-08-06T10:30:30;7.40;;;5.50;;
70049;SDS011;57391;51.306;22.680;2023-08-06T10:33:02;6.50;;;4.40;;
70049;SDS011;57391;51.306;22.680;2023-08-06T10:35:44;9.40;;;5.30;;
70049;SDS011;57391;51.306;22.680;2023-08-06T10:38:17;8.30;;;5.40;;
70049;SDS011;57391;51.306;22.680;2023-08-06T10:43:28;9.40;;;5.10;;
70049;SDS011;57391;51.306;22.680;2023-08-06T10:45:56;7.90;;;5.20;;
70049;SDS011;57391;51.306;22.680;2023-08-06T10:48:54;8.30;;;5.30;;
70049;SDS011;57391;51.306;22.680;2023-08-06T10:51:21;7.90;;;5.40;;
70049;SDS011;57391;51.306;22.680;2023-08-06T10:53:49;8.50;;;5.60;;
70049;SDS011;57391;51.306;22.680;2023-08-06T10:56:18;7.40;;;5.60;;
70049;SDS011;57391;51.306;22.680;2023-08-06T10:58:46;7.70;;;5.30;;
70049;SDS011;57391;51.306;22.680;2023-08-06T11:01:14;10.80;;;5.50;;
70049;SDS011;57391;51.306;22.680;2023-08-06T11:03:43;8.10;;;5.70;;
70049;SDS011;57391;51.306;22.680;2023-08-06T11:06:17;9.80;;;5.90;;
70049;SDS011;57391;51.306;22.680;2023-08-06T11:08:51;10.00;;;6.10;;
70049;SDS011;57391;51.306;22.680;2023-08-06T11:11:20;9.90;;;6.40;;
70049;SDS011;57391;51.306;22.680;2023-08-06T11:13:50;11.90;;;6.00;;
70049;SDS011;57391;51.306;22.680;2023-08-06T11:16:23;9.30;;;5.60;;
70049;SDS011;57391;51.306;22.680;2023-08-06T11:18:53;9.30;;;6.10;;
70049;SDS011;57391;51.306;22.680;2023-08-06T11:21:22;8.20;;;6.10;;
70049;SDS011;57391;51.306;22.680;2023-08-06T11:23:51;10.70;;;5.40;;
70049;SDS011;57391;51.306;22.680;2023-08-06T11:26:20;8.70;;;5.20;;
70049;SDS011;57391;51.306;22.680;2023-08-06T11:28:49;6.70;;;5.20;;
70049;SDS011;57391;51.306;22.680;2023-08-06T11:31:20;8.20;;;4.80;;
70049;SDS011;57391;51.306;22.680;2023-08-06T11:33:51;7.50;;;5.30;;
70049;SDS011;57391;51.306;22.680;2023-08-06T11:36:32;6.70;;;4.90;;
70049;SDS011;57391;51.306;22.680;2023-08-06T11:39:01;11.60;;;6.00;;
70049;SDS011;57391;51.306;22.680;2023-08-06T11:41:29;8.40;;;5.80;;
70049;SDS011;57391;51.306;22.680;2023-08-06T11:43:57;7.70;;;5.40;;
70049;SDS011;57391;51.306;22.680;2023-08-06T11:46:25;10.30;;;6.30;;
70049;SDS011;57391;51.306;22.680;2023-08-06T11:48:56;9.70;;;5.60;;
70049;SDS011;57391;51.306;22.680;2023-08-06T11:51:26;9.50;;;6.00;;
70049;SDS011;57391;51.306;22.680;2023-08-06T11:53:59;9.00;;;5.60;;
70049;SDS011;57391;51.306;22.680;2023-08-06T11:56:26;6.80;;;5.60;;
70049;SDS011;57391;51.306;22.680;2023-08-06T11:58:55;9.40;;;6.30;;
70049;SDS011;57391;51.306;22.680;2023-08-06T12:01:22;7.90;;;5.80;;
70049;SDS011;57391;51.306;22.680;2023-08-06T12:03:49;8.80;;;6.10;;
70049;SDS011;57391;51.306;22.680;2023-08-06T12:06:15;9.40;;;5.80;;
70049;SDS011;57391;51.306;22.680;2023-08-06T12:08:42;12.70;;;6.20;;
70049;SDS011;57391;51.306;22.680;2023-08-06T12:11:09;8.80;;;5.50;;
70049;SDS011;57391;51.306;22.680;2023-08-06T12:13:36;10.10;;;6.00;;
70049;SDS011;57391;51.306;22.680;2023-08-06T12:16:04;12.60;;;6.40;;
70049;SDS011;57391;51.306;22.680;2023-08-06T12:18:31;8.40;;;5.90;;
70049;SDS011;57391;51.306;22.680;2023-08-06T12:20:58;8.50;;;6.10;;
70049;SDS011;57391;51.306;22.680;2023-08-06T12:23:25;9.70;;;6.40;;
70049;SDS011;57391;51.306;22.680;2023-08-06T12:25:52;8.80;;;5.70;;
70049;SDS011;57391;51.306;22.680;2023-08-06T12:28:18;7.90;;;6.40;;
70049;SDS011;57391;51.306;22.680;2023-08-06T12:30:45;8.50;;;5.70;;
70049;SDS011;57391;51.306;22.680;2023-08-06T12:33:13;10.30;;;6.00;;
70049;SDS011;57391;51.306;22.680;2023-08-06T12:35:40;8.60;;;5.90;;
70049;SDS011;57391;51.306;22.680;2023-08-06T12:38:07;7.10;;;5.90;;
70049;SDS011;57391;51.306;22.680;2023-08-06T12:40:34;7.40;;;5.60;;
70049;SDS011;57391;51.306;22.680;2023-08-06T12:43:00;8.90;;;6.30;;
70049;SDS011;57391;51.306;22.680;2023-08-06T12:45:27;10.10;;;6.80;;
70049;SDS011;57391;51.306;22.680;2023-08-06T12:47:54;11.70;;;6.90;;
70049;SDS011;57391;51.306;22.680;2023-08-06T12:50:21;12.00;;;6.00;;
70049;SDS011;57391;51.306;22.680;2023-08-06T12:52:48;8.70;;;6.10;;
70049;SDS011;57391;51.306;22.680;2023-08-06T12:55:15;9.50;;;6.20;;
70049;SDS011;57391;51.306;22.680;2023-08-06T12:57:41;10.70;;;6.50;;
70049;SDS011;57391;51.306;22.680;2023-08-06T13:00:09;11.00;;;6.70;;
70049;SDS011;57391;51.306;22.680;2023-08-06T13:02:36;8.90;;;6.50;;
70049;SDS011;57391;51.306;22.680;2023-08-06T13:05:03;10.50;;;7.00;;
70049;SDS011;57391;51.306;22.680;2023-08-06T13:07:32;10.10;;;7.10;;
70049;SDS011;57391;51.306;22.680;2023-08-06T13:09:59;10.80;;;5.40;;
70049;SDS011;57391;51.306;22.680;2023-08-06T13:12:26;6.40;;;4.90;;
70049;SDS011;57391;51.306;22.680;2023-08-06T13:14:53;6.80;;;4.20;;
70049;SDS011;57391;51.306;22.680;2023-08-06T13:17:21;6.20;;;3.80;;
70049;SDS011;57391;51.306;22.680;2023-08-06T13:19:48;6.00;;;4.10;;
70049;SDS011;57391;51.306;22.680;2023-08-06T13:22:15;6.90;;;3.90;;
70049;SDS011;57391;51.306;22.680;2023-08-06T13:24:42;6.20;;;4.20;;
70049;SDS011;57391;51.306;22.680;2023-08-06T13:27:09;6.70;;;4.00;;
70049;SDS011;57391;51.306;22.680;2023-08-06T13:29:36;9.60;;;4.70;;
70049;SDS011;57391;51.306;22.680;2023-08-06T13:32:03;8.40;;;4.40;;
70049;SDS011;57391;51.306;22.680;2023-08-06T13:34:30;8.30;;;4.10;;
70049;SDS011;57391;51.306;22.680;2023-08-06T13:36:57;7.00;;;4.10;;
70049;SDS011;57391;51.306;22.680;2023-08-06T13:39:23;6.10;;;4.10;;
70049;SDS011;57391;51.306;22.680;2023-08-06T13:41:50;7.40;;;4.50;;
70049;SDS011;57391;51.306;22.680;2023-08-06T13:44:17;7.20;;;4.30;;
70049;SDS011;57391;51.306;22.680;2023-08-06T13:46:44;8.30;;;4.80;;
70049;SDS011;57391;51.306;22.680;2023-08-06T13:49:11;6.90;;;4.30;;
70049;SDS011;57391;51.306;22.680;2023-08-06T13:51:38;8.30;;;5.00;;
70049;SDS011;57391;51.306;22.680;2023-08-06T13:54:05;6.60;;;4.00;;
70049;SDS011;57391;51.306;22.680;2023-08-06T13:56:33;8.40;;;5.30;;
70049;SDS011;57391;51.306;22.680;2023-08-06T13:59:01;7.10;;;5.10;;
70049;SDS011;57391;51.306;22.680;2023-08-06T14:01:27;8.50;;;4.50;;
70049;SDS011;57391;51.306;22.680;2023-08-06T14:03:54;9.30;;;5.00;;
70049;SDS011;57391;51.306;22.680;2023-08-06T14:06:21;7.90;;;5.10;;
70049;SDS011;57391;51.306;22.680;2023-08-06T14:08:48;9.00;;;4.60;;
70049;SDS011;57391;51.306;22.680;2023-08-06T14:11:15;8.10;;;5.50;;
70049;SDS011;57391;51.306;22.680;2023-08-06T14:13:41;7.30;;;5.50;;
70049;SDS011;57391;51.306;22.680;2023-08-06T14:16:08;8.10;;;5.30;;
70049;SDS011;57391;51.306;22.680;2023-08-06T14:18:35;7.40;;;5.20;;
70049;SDS011;57391;51.306;22.680;2023-08-06T14:21:04;8.50;;;5.90;;
70049;SDS011;57391;51.306;22.680;2023-08-06T14:23:31;8.20;;;5.70;;
70049;SDS011;57391;51.306;22.680;2023-08-06T14:25:58;8.70;;;4.90;;
70049;SDS011;57391;51.306;22.680;2023-08-06T14:28:25;7.70;;;5.10;;
70049;SDS011;57391;51.306;22.680;2023-08-06T14:30:52;9.10;;;5.50;;
70049;SDS011;57391;51.306;22.680;2023-08-06T14:33:19;9.20;;;6.00;;
70049;SDS011;57391;51.306;22.680;2023-08-06T14:35:46;7.60;;;5.30;;
70049;SDS011;57391;51.306;22.680;2023-08-06T14:38:13;8.40;;;5.40;;
70049;SDS011;57391;51.306;22.680;2023-08-06T14:40:40;6.90;;;5.10;;
70049;SDS011;57391;51.306;22.680;2023-08-06T14:43:07;7.30;;;5.00;;
70049;SDS011;57391;51.306;22.680;2023-08-06T14:45:38;9.10;;;5.40;;
70049;SDS011;57391;51.306;22.680;2023-08-06T14:48:06;7.90;;;5.40;;
70049;SDS011;57391;51.306;22.680;2023-08-06T14:50:33;9.00;;;5.50;;